Terminal Aerodrome Forecast
Issued by NWS

Home | Current Version | Previous Version | Text Only | Print | Product List | Glossary On
Versions: 1 2 3 4 5 6 7 8 9 10 11 12 13 14 15
000
FTUS45 KVEF 242320
TAFVGT
TAF
KVGT 242320Z 2500/2524 23015G25KT P6SM SCT120 SCT180
     FM250400 22012KT P6SM FEW080 SCT200
     FM250800 15007KT P6SM SCT100 BKN200
     FM251500 16012G20KT P6SM SCT100 BKN200
     FM252000 22022G32KT P6SM SCT080 BKN140=

USA.gov is the U.S. government's official web portal to all federal, state and local government web resources and services.